sensor_id;sensor_type;location;lat;lon;timestamp;pressure;altitude;pressure_sealevel;temperature;humidity
4570;BME280;2297;51.442;6.996;2023-04-26T00:01:00;100566.91;;;8.62;38.99
4570;BME280;2297;51.442;6.996;2023-04-26T00:03:30;100573.06;;;8.66;38.98
4570;BME280;2297;51.442;6.996;2023-04-26T00:05:59;100567.81;;;8.63;38.94
4570;BME280;2297;51.442;6.996;2023-04-26T00:08:28;100578.34;;;8.63;39.30
4570;BME280;2297;51.442;6.996;2023-04-26T00:10:55;100583.59;;;8.63;38.84
4570;BME280;2297;51.442;6.996;2023-04-26T00:13:21;100574.91;;;8.52;39.43
4570;BME280;2297;51.442;6.996;2023-04-26T00:15:48;100570.53;;;8.51;39.34
4570;BME280;2297;51.442;6.996;2023-04-26T00:18:14;100567.00;;;8.52;39.54
4570;BME280;2297;51.442;6.996;2023-04-26T00:20:41;100571.50;;;8.37;39.27
4570;BME280;2297;51.442;6.996;2023-04-26T00:23:09;100567.97;;;8.41;39.52
4570;BME280;2297;51.442;6.996;2023-04-26T00:25:36;100560.91;;;8.46;39.75
4570;BME280;2297;51.442;6.996;2023-04-26T00:28:03;100564.41;;;8.48;39.75
4570;BME280;2297;51.442;6.996;2023-04-26T00:30:30;100565.25;;;8.51;39.64
4570;BME280;2297;51.442;6.996;2023-04-26T00:32:58;100564.41;;;8.45;40.13
4570;BME280;2297;51.442;6.996;2023-04-26T00:35:25;100556.78;;;8.11;40.59
4570;BME280;2297;51.442;6.996;2023-04-26T00:37:51;100559.41;;;8.14;40.73
4570;BME280;2297;51.442;6.996;2023-04-26T00:40:19;100561.13;;;8.19;41.09
4570;BME280;2297;51.442;6.996;2023-04-26T00:42:46;100557.66;;;8.17;40.96
4570;BME280;2297;51.442;6.996;2023-04-26T00:45:13;100559.28;;;8.30;40.68
4570;BME280;2297;51.442;6.996;2023-04-26T00:47:40;100550.50;;;8.34;40.91
4570;BME280;2297;51.442;6.996;2023-04-26T00:50:07;100550.53;;;8.31;40.87
4570;BME280;2297;51.442;6.996;2023-04-26T00:52:34;100557.50;;;8.32;40.95
4570;BME280;2297;51.442;6.996;2023-04-26T00:55:02;100544.34;;;8.35;41.15
4570;BME280;2297;51.442;6.996;2023-04-26T00:57:30;100541.69;;;8.38;40.92
4570;BME280;2297;51.442;6.996;2023-04-26T00:59:57;100549.53;;;8.41;41.09
4570;BME280;2297;51.442;6.996;2023-04-26T01:02:24;100546.09;;;8.35;41.13
4570;BME280;2297;51.442;6.996;2023-04-26T01:04:50;100550.50;;;8.34;41.20
4570;BME280;2297;51.442;6.996;2023-04-26T01:07:17;100554.88;;;8.35;41.31
4570;BME280;2297;51.442;6.996;2023-04-26T01:09:44;100549.59;;;8.37;41.37
4570;BME280;2297;51.442;6.996;2023-04-26T01:12:11;100548.69;;;8.39;41.60
4570;BME280;2297;51.442;6.996;2023-04-26T01:14:40;100547.91;;;8.31;41.06
4570;BME280;2297;51.442;6.996;2023-04-26T01:17:08;100550.53;;;8.31;41.14
4570;BME280;2297;51.442;6.996;2023-04-26T01:19:34;100556.69;;;8.28;41.10
4570;BME280;2297;51.442;6.996;2023-04-26T01:22:01;100556.69;;;8.25;41.33
4570;BME280;2297;51.442;6.996;2023-04-26T01:24:30;100556.69;;;8.24;41.46
4570;BME280;2297;51.442;6.996;2023-04-26T01:26:58;100561.16;;;8.15;41.47
4570;BME280;2297;51.442;6.996;2023-04-26T01:29:25;100559.44;;;8.11;41.57
4570;BME280;2297;51.442;6.996;2023-04-26T01:31:52;100561.16;;;8.15;41.57
4570;BME280;2297;51.442;6.996;2023-04-26T01:34:18;100563.78;;;8.14;41.69
4570;BME280;2297;51.442;6.996;2023-04-26T01:36:46;100561.19;;;8.09;41.59
4570;BME280;2297;51.442;6.996;2023-04-26T01:39:12;100562.91;;;8.13;41.26
4570;BME280;2297;51.442;6.996;2023-04-26T01:41:40;100557.69;;;8.07;41.41
4570;BME280;2297;51.442;6.996;2023-04-26T01:44:07;100562.19;;;7.88;41.66
4570;BME280;2297;51.442;6.996;2023-04-26T01:46:33;100554.38;;;7.74;42.14
4570;BME280;2297;51.442;6.996;2023-04-26T01:49:00;100560.53;;;7.67;41.88
4570;BME280;2297;51.442;6.996;2023-04-26T01:51:27;100564.91;;;7.71;41.88
4570;BME280;2297;51.442;6.996;2023-04-26T01:54:09;100564.00;;;7.77;42.03
4570;BME280;2297;51.442;6.996;2023-04-26T01:56:35;100565.78;;;7.72;42.04
4570;BME280;2297;51.442;6.996;2023-04-26T01:59:03;100560.50;;;7.76;42.18
4570;BME280;2297;51.442;6.996;2023-04-26T02:01:32;100566.66;;;7.75;42.05
4570;BME280;2297;51.442;6.996;2023-04-26T02:03:59;100571.91;;;7.75;42.09
4570;BME280;2297;51.442;6.996;2023-04-26T02:06:26;100567.50;;;7.79;42.36
4570;BME280;2297;51.442;6.996;2023-04-26T02:08:52;100568.41;;;7.73;42.12
4570;BME280;2297;51.442;6.996;2023-04-26T02:11:19;100570.13;;;7.77;42.22
4570;BME280;2297;51.442;6.996;2023-04-26T02:13:47;100568.38;;;7.79;42.28
4570;BME280;2297;51.442;6.996;2023-04-26T02:16:15;100570.19;;;7.68;42.49
4570;BME280;2297;51.442;6.996;2023-04-26T02:18:41;100568.44;;;7.67;42.54
4570;BME280;2297;51.442;6.996;2023-04-26T02:21:11;100569.28;;;7.72;42.52
4570;BME280;2297;51.442;6.996;2023-04-26T02:23:38;100564.88;;;7.77;42.31
4570;BME280;2297;51.442;6.996;2023-04-26T02:26:05;100563.31;;;7.21;43.36
4570;BME280;2297;51.442;6.996;2023-04-26T02:28:31;100566.78;;;7.44;42.95
4570;BME280;2297;51.442;6.996;2023-04-26T02:30:58;100565.88;;;7.53;43.13
4570;BME280;2297;51.442;6.996;2023-04-26T02:33:26;100564.19;;;7.34;43.48
4570;BME280;2297;51.442;6.996;2023-04-26T02:35:53;100569.47;;;7.30;43.64
4570;BME280;2297;51.442;6.996;2023-04-26T02:38:19;100568.53;;;7.41;43.19
4570;BME280;2297;51.442;6.996;2023-04-26T02:40:46;100569.47;;;7.13;43.44
4570;BME280;2297;51.442;6.996;2023-04-26T02:43:13;100560.72;;;7.27;43.50
4570;BME280;2297;51.442;6.996;2023-04-26T02:45:40;100561.56;;;7.38;43.36
4570;BME280;2297;51.442;6.996;2023-04-26T02:48:08;100557.16;;;7.34;42.89
4570;BME280;2297;51.442;6.996;2023-04-26T02:50:36;100567.72;;;7.11;43.67
4570;BME280;2297;51.442;6.996;2023-04-26T02:53:02;100564.22;;;7.21;43.63
4570;BME280;2297;51.442;6.996;2023-04-26T02:55:29;100561.59;;;7.26;43.58
4570;BME280;2297;51.442;6.996;2023-04-26T02:57:56;100562.50;;;7.02;43.75
4570;BME280;2297;51.442;6.996;2023-04-26T03:00:23;100563.34;;;7.08;43.91
4570;BME280;2297;51.442;6.996;2023-04-26T03:02:50;100557.22;;;7.19;43.60
4570;BME280;2297;51.442;6.996;2023-04-26T03:05:17;100558.97;;;7.09;43.96
4570;BME280;2297;51.442;6.996;2023-04-26T03:07:48;100552.84;;;7.11;43.79
4570;BME280;2297;51.442;6.996;2023-04-26T03:10:15;100558.06;;;7.24;43.60
4570;BME280;2297;51.442;6.996;2023-04-26T03:12:42;100561.56;;;7.23;43.68
4570;BME280;2297;51.442;6.996;2023-04-26T03:15:09;100558.09;;;7.14;43.43
4570;BME280;2297;51.442;6.996;2023-04-26T03:17:35;100556.31;;;7.17;43.44
4570;BME280;2297;51.442;6.996;2023-04-26T03:20:03;100552.81;;;7.18;43.61
4570;BME280;2297;51.442;6.996;2023-04-26T03:22:31;100544.06;;;7.22;43.54
4570;BME280;2297;51.442;6.996;2023-04-26T03:24:59;100544.94;;;7.21;43.66
4570;BME280;2297;51.442;6.996;2023-04-26T03:27:25;100551.09;;;7.13;43.75
4570;BME280;2297;51.442;6.996;2023-04-26T03:29:52;100551.97;;;7.17;43.75
4570;BME280;2297;51.442;6.996;2023-04-26T03:32:18;100549.31;;;7.22;43.49
4570;BME280;2297;51.442;6.996;2023-04-26T03:34:45;100544.88;;;7.41;43.08
4570;BME280;2297;51.442;6.996;2023-04-26T03:37:12;100541.28;;;7.62;42.58
4570;BME280;2297;51.442;6.996;2023-04-26T03:39:39;100537.75;;;7.64;42.43
4570;BME280;2297;51.442;6.996;2023-04-26T03:42:07;100539.56;;;7.61;42.35
4570;BME280;2297;51.442;6.996;2023-04-26T03:44:34;100538.69;;;7.59;42.47
4570;BME280;2297;51.442;6.996;2023-04-26T03:47:00;100535.19;;;7.60;42.70
4570;BME280;2297;51.442;6.996;2023-04-26T03:49:28;100531.66;;;7.62;42.61
4570;BME280;2297;51.442;6.996;2023-04-26T03:51:54;100536.09;;;7.50;42.79
4570;BME280;2297;51.442;6.996;2023-04-26T03:54:21;100533.47;;;7.43;42.63
4570;BME280;2297;51.442;6.996;2023-04-26T03:56:48;100533.50;;;7.42;42.74
4570;BME280;2297;51.442;6.996;2023-04-26T03:59:16;100525.63;;;7.34;42.96
4570;BME280;2297;51.442;6.996;2023-04-26T04:01:42;100537.00;;;7.45;42.92
4570;BME280;2297;51.442;6.996;2023-04-26T04:04:09;100533.53;;;7.36;43.03
4570;BME280;2297;51.442;6.996;2023-04-26T04:06:35;100538.75;;;7.43;42.83
4570;BME280;2297;51.442;6.996;2023-04-26T04:09:02;100538.75;;;7.46;42.89
4570;BME280;2297;51.442;6.996;2023-04-26T04:11:29;100532.63;;;7.41;42.63
4570;BME280;2297;51.442;6.996;2023-04-26T04:13:57;100542.22;;;7.52;42.82
4570;BME280;2297;51.442;6.996;2023-04-26T04:16:25;100540.53;;;7.38;42.92
4570;BME280;2297;51.442;6.996;2023-04-26T04:18:52;100542.31;;;7.27;43.12
4570;BME280;2297;51.442;6.996;2023-04-26T04:21:18;100540.53;;;7.41;42.90
4570;BME280;2297;51.442;6.996;2023-04-26T04:23:45;100540.47;;;7.51;42.76
4570;BME280;2297;51.442;6.996;2023-04-26T04:26:12;100540.53;;;7.38;43.12
4570;BME280;2297;51.442;6.996;2023-04-26T04:28:39;100551.94;;;7.22;43.17
4570;BME280;2297;51.442;6.996;2023-04-26T04:31:06;100545.81;;;7.30;43.22
4570;BME280;2297;51.442;6.996;2023-04-26T04:33:35;100544.03;;;7.34;43.29
4570;BME280;2297;51.442;6.996;2023-04-26T04:36:02;100544.03;;;7.34;43.06
4570;BME280;2297;51.442;6.996;2023-04-26T04:38:29;100557.22;;;7.19;43.40
4570;BME280;2297;51.442;6.996;2023-04-26T04:40:56;100565.94;;;7.24;43.47
4570;BME280;2297;51.442;6.996;2023-04-26T04:43:22;100560.69;;;7.31;43.57
4570;BME280;2297;51.442;6.996;2023-04-26T04:45:52;100560.75;;;6.97;43.96
4570;BME280;2297;51.442;6.996;2023-04-26T04:48:19;100557.19;;;7.22;43.82
4570;BME280;2297;51.442;6.996;2023-04-26T04:50:48;100550.22;;;7.25;43.56
4570;BME280;2297;51.442;6.996;2023-04-26T04:53:15;100559.84;;;7.09;44.08
4570;BME280;2297;51.442;6.996;2023-04-26T04:55:41;100568.59;;;7.14;43.94
4570;BME280;2297;51.442;6.996;2023-04-26T04:58:08;100558.06;;;7.30;43.64
4570;BME280;2297;51.442;6.996;2023-04-26T05:00:35;100562.44;;;7.34;43.50
4570;BME280;2297;51.442;6.996;2023-04-26T05:03:03;100556.25;;;7.44;43.36
4570;BME280;2297;51.442;6.996;2023-04-26T05:05:33;100571.16;;;7.45;43.37
4570;BME280;2297;51.442;6.996;2023-04-26T05:08:01;100568.50;;;7.55;43.21
4570;BME280;2297;51.442;6.996;2023-04-26T05:10:32;100572.00;;;7.54;43.13
4570;BME280;2297;51.442;6.996;2023-04-26T05:12:59;100575.53;;;7.46;43.34
4570;BME280;2297;51.442;6.996;2023-04-26T05:15:25;100579.03;;;7.48;43.48
4570;BME280;2297;51.442;6.996;2023-04-26T05:17:52;100577.25;;;7.54;43.34
4570;BME280;2297;51.442;6.996;2023-04-26T05:20:20;100570.25;;;7.56;43.31
4570;BME280;2297;51.442;6.996;2023-04-26T05:22:46;100579.88;;;7.60;43.47
4570;BME280;2297;51.442;6.996;2023-04-26T05:25:14;100582.53;;;7.49;43.37
4570;BME280;2297;51.442;6.996;2023-04-26T05:27:41;100584.25;;;7.61;43.41
4570;BME280;2297;51.442;6.996;2023-04-26T05:30:10;100585.09;;;7.68;43.29
4570;BME280;2297;51.442;6.996;2023-04-26T05:32:37;100585.97;;;7.62;43.16
4570;BME280;2297;51.442;6.996;2023-04-26T05:35:06;100587.72;;;7.63;43.39
4570;BME280;2297;51.442;6.996;2023-04-26T05:37:33;100592.09;;;7.65;43.22
4570;BME280;2297;51.442;6.996;2023-04-26T05:40:00;100592.94;;;7.72;43.31
4570;BME280;2297;51.442;6.996;2023-04-26T05:42:28;100599.09;;;7.68;43.33
4570;BME280;2297;51.442;6.996;2023-04-26T05:44:56;100593.81;;;7.70;43.42
4570;BME280;2297;51.442;6.996;2023-04-26T05:47:23;100605.34;;;7.42;43.99
4570;BME280;2297;51.442;6.996;2023-04-26T05:49:50;100601.78;;;7.56;44.16
4570;BME280;2297;51.442;6.996;2023-04-26T05:52:16;100601.75;;;7.62;44.26
4570;BME280;2297;51.442;6.996;2023-04-26T05:54:43;100600.03;;;7.55;44.13
4570;BME280;2297;51.442;6.996;2023-04-26T05:57:09;100604.38;;;7.60;44.67
4570;BME280;2297;51.442;6.996;2023-04-26T05:59:38;100607.94;;;7.47;44.48
4570;BME280;2297;51.442;6.996;2023-04-26T06:02:05;100606.22;;;7.34;44.92
4570;BME280;2297;51.442;6.996;2023-04-26T06:04:32;100609.66;;;7.53;44.90
4570;BME280;2297;51.442;6.996;2023-04-26T06:06:59;100614.13;;;7.29;45.04
4570;BME280;2297;51.442;6.996;2023-04-26T06:09:25;100616.75;;;7.34;45.18
4570;BME280;2297;51.442;6.996;2023-04-26T06:11:52;100615.81;;;7.52;45.23
4570;BME280;2297;51.442;6.996;2023-04-26T06:14:19;100609.66;;;7.53;44.84
4570;BME280;2297;51.442;6.996;2023-04-26T06:16:47;100608.72;;;7.71;44.94
4570;BME280;2297;51.442;6.996;2023-04-26T06:19:13;100619.25;;;7.69;44.55
4570;BME280;2297;51.442;6.996;2023-04-26T06:21:40;100620.88;;;7.98;44.08
4570;BME280;2297;51.442;6.996;2023-04-26T06:24:07;100627.03;;;7.97;44.28
4570;BME280;2297;51.442;6.996;2023-04-26T06:26:34;100622.66;;;7.90;44.23
4570;BME280;2297;51.442;6.996;2023-04-26T06:29:00;100629.66;;;7.91;44.05
4570;BME280;2297;51.442;6.996;2023-04-26T06:31:27;100635.72;;;8.08;44.27
4570;BME280;2297;51.442;6.996;2023-04-26T06:33:55;100635.72;;;8.10;43.72
4570;BME280;2297;51.442;6.996;2023-04-26T06:36:22;100629.69;;;7.88;43.56
4570;BME280;2297;51.442;6.996;2023-04-26T06:38:48;100639.28;;;7.98;43.74
4570;BME280;2297;51.442;6.996;2023-04-26T06:41:15;100642.75;;;8.06;43.75
4570;BME280;2297;51.442;6.996;2023-04-26T06:43:42;100641.91;;;7.95;43.21
4570;BME280;2297;51.442;6.996;2023-04-26T06:46:10;100640.13;;;8.05;43.43
4570;BME280;2297;51.442;6.996;2023-04-26T06:48:37;100634.88;;;8.00;43.28
4570;BME280;2297;51.442;6.996;2023-04-26T06:51:06;100637.53;;;7.98;43.27
4570;BME280;2297;51.442;6.996;2023-04-26T06:53:32;100639.13;;;8.27;42.95
4570;BME280;2297;51.442;6.996;2023-04-26T06:55:59;100632.03;;;8.42;43.13
4570;BME280;2297;51.442;6.996;2023-04-26T06:58:26;100629.38;;;8.39;43.22
4570;BME280;2297;51.442;6.996;2023-04-26T07:00:52;100625.00;;;8.42;42.92
4570;BME280;2297;51.442;6.996;2023-04-26T07:03:19;100626.75;;;8.43;42.94
4570;BME280;2297;51.442;6.996;2023-04-26T07:05:46;100624.16;;;8.40;43.22
4570;BME280;2297;51.442;6.996;2023-04-26T07:08:14;100626.75;;;8.43;42.68
4570;BME280;2297;51.442;6.996;2023-04-26T07:10:40;100623.03;;;8.71;41.97
4570;BME280;2297;51.442;6.996;2023-04-26T07:13:07;100633.03;;;8.21;43.14
4570;BME280;2297;51.442;6.996;2023-04-26T07:15:34;100634.91;;;7.97;43.98
4570;BME280;2297;51.442;6.996;2023-04-26T07:18:00;100634.91;;;7.97;44.27
4570;BME280;2297;51.442;6.996;2023-04-26T07:20:27;100635.72;;;8.07;43.75
4570;BME280;2297;51.442;6.996;2023-04-26T07:22:54;100634.78;;;8.20;43.78
4570;BME280;2297;51.442;6.996;2023-04-26T07:25:22;100640.13;;;8.06;42.11
4570;BME280;2297;51.442;6.996;2023-04-26T07:27:48;100634.94;;;7.94;42.92
4570;BME280;2297;51.442;6.996;2023-04-26T07:30:16;100636.53;;;8.20;43.11
4570;BME280;2297;51.442;6.996;2023-04-26T07:32:43;100637.44;;;8.17;42.11
4570;BME280;2297;51.442;6.996;2023-04-26T07:35:25;100630.22;;;8.48;41.66
4570;BME280;2297;51.442;6.996;2023-04-26T07:37:51;100627.72;;;8.30;41.33
4570;BME280;2297;51.442;6.996;2023-04-26T07:40:18;100635.59;;;8.27;41.41
4570;BME280;2297;51.442;6.996;2023-04-26T07:42:48;100633.88;;;8.26;41.19
4570;BME280;2297;51.442;6.996;2023-04-26T07:45:15;100632.78;;;8.58;41.43
4570;BME280;2297;51.442;6.996;2023-04-26T07:47:42;100623.22;;;8.46;40.55
4570;BME280;2297;51.442;6.996;2023-04-26T07:50:09;100625.72;;;8.60;40.49
4570;BME280;2297;51.442;6.996;2023-04-26T07:52:36;100630.84;;;8.85;40.04
4570;BME280;2297;51.442;6.996;2023-04-26T07:55:04;100641.34;;;8.88;39.72
4570;BME280;2297;51.442;6.996;2023-04-26T07:57:31;100629.25;;;8.62;39.71
4570;BME280;2297;51.442;6.996;2023-04-26T07:59:59;100626.47;;;8.82;39.06
4570;BME280;2297;51.442;6.996;2023-04-26T08:02:25;100620.31;;;8.85;38.11
4570;BME280;2297;51.442;6.996;2023-04-26T08:04:52;100616.53;;;9.13;37.35
4570;BME280;2297;51.442;6.996;2023-04-26T08:07:20;100632.16;;;9.32;37.35
4570;BME280;2297;51.442;6.996;2023-04-26T08:09:47;100626.06;;;9.24;36.01
4570;BME280;2297;51.442;6.996;2023-04-26T08:12:14;100630.56;;;9.15;35.83
4570;BME280;2297;51.442;6.996;2023-04-26T08:14:41;100625.03;;;9.40;36.18
4570;BME280;2297;51.442;6.996;2023-04-26T08:17:09;100624.69;;;8.86;37.90
4570;BME280;2297;51.442;6.996;2023-04-26T08:19:36;100622.44;;;9.34;37.62
4570;BME280;2297;51.442;6.996;2023-04-26T08:22:02;100622.44;;;9.36;37.42
4570;BME280;2297;51.442;6.996;2023-04-26T08:24:30;100618.78;;;9.51;36.88
4570;BME280;2297;51.442;6.996;2023-04-26T08:26:56;100620.34;;;9.65;36.67
4570;BME280;2297;51.442;6.996;2023-04-26T08:29:26;100615.81;;;9.75;36.69
4570;BME280;2297;51.442;6.996;2023-04-26T08:31:53;100619.16;;;9.90;36.27
4570;BME280;2297;51.442;6.996;2023-04-26T08:34:21;100620.00;;;9.95;35.43
4570;BME280;2297;51.442;6.996;2023-04-26T08:36:47;100624.66;;;9.71;35.46
4570;BME280;2297;51.442;6.996;2023-04-26T08:39:14;100632.06;;;9.38;34.88
4570;BME280;2297;51.442;6.996;2023-04-26T08:41:43;100626.56;;;9.60;35.77
4570;BME280;2297;51.442;6.996;2023-04-26T08:44:11;100629.06;;;8.87;36.58
4570;BME280;2297;51.442;6.996;2023-04-26T08:46:45;100632.16;;;9.29;36.80
4570;BME280;2297;51.442;6.996;2023-04-26T08:49:25;100627.81;;;9.28;36.92
4570;BME280;2297;51.442;6.996;2023-04-26T08:51:56;100631.91;;;9.54;36.99
4570;BME280;2297;51.442;6.996;2023-04-26T08:54:24;100632.88;;;9.45;37.19
4570;BME280;2297;51.442;6.996;2023-04-26T08:56:52;100634.31;;;9.74;36.88
4570;BME280;2297;51.442;6.996;2023-04-26T08:59:21;100634.38;;;9.66;36.28
4570;BME280;2297;51.442;6.996;2023-04-26T09:01:48;100629.00;;;9.78;35.98
4570;BME280;2297;51.442;6.996;2023-04-26T09:04:15;100635.22;;;9.71;35.94
4570;BME280;2297;51.442;6.996;2023-04-26T09:06:44;100622.72;;;9.86;35.36
4570;BME280;2297;51.442;6.996;2023-04-26T09:09:12;100630.38;;;10.09;35.83
4570;BME280;2297;51.442;6.996;2023-04-26T09:11:54;100632.81;;;10.23;34.38
4570;BME280;2297;51.442;6.996;2023-04-26T09:14:20;100629.88;;;10.43;34.57
4570;BME280;2297;51.442;6.996;2023-04-26T09:16:47;100632.19;;;10.63;33.68
4570;BME280;2297;51.442;6.996;2023-04-26T09:19:14;100625.31;;;9.93;33.55
4570;BME280;2297;51.442;6.996;2023-04-26T09:21:45;100626.59;;;10.27;34.00
4570;BME280;2297;51.442;6.996;2023-04-26T09:24:12;100628.13;;;10.43;34.25
4570;BME280;2297;51.442;6.996;2023-04-26T09:26:39;100625.53;;;10.39;34.06
4570;BME280;2297;51.442;6.996;2023-04-26T09:29:13;100625.81;;;10.20;33.97
4570;BME280;2297;51.442;6.996;2023-04-26T09:31:42;100631.44;;;9.94;34.05
4570;BME280;2297;51.442;6.996;2023-04-26T09:34:10;100631.25;;;10.09;34.36
4570;BME280;2297;51.442;6.996;2023-04-26T09:36:51;100636.59;;;10.03;34.33
4570;BME280;2297;51.442;6.996;2023-04-26T09:39:33;100633.56;;;9.64;34.52
4570;BME280;2297;51.442;6.996;2023-04-26T09:42:02;100631.56;;;9.81;34.51
4570;BME280;2297;51.442;6.996;2023-04-26T09:44:29;100629.75;;;9.87;34.21
4570;BME280;2297;51.442;6.996;2023-04-26T09:46:57;100621.88;;;9.85;33.72
4570;BME280;2297;51.442;6.996;2023-04-26T09:52:42;100611.63;;;10.29;32.61
4570;BME280;2297;51.442;6.996;2023-04-26T09:55:09;100616.47;;;10.57;31.71
4570;BME280;2297;51.442;6.996;2023-04-26T09:57:41;100609.22;;;10.68;31.55
4570;BME280;2297;51.442;6.996;2023-04-26T10:00:10;100608.91;;;10.87;31.13
4570;BME280;2297;51.442;6.996;2023-04-26T10:02:37;100602.00;;;11.31;30.93
4570;BME280;2297;51.442;6.996;2023-04-26T10:05:06;100608.03;;;10.88;30.91
4570;BME280;2297;51.442;6.996;2023-04-26T10:07:33;100597.78;;;10.69;29.93
4570;BME280;2297;51.442;6.996;2023-04-26T10:10:02;100606.28;;;10.32;29.86
4570;BME280;2297;51.442;6.996;2023-04-26T10:12:29;100600.31;;;10.75;30.08
4570;BME280;2297;51.442;6.996;2023-04-26T10:15:17;100604.91;;;11.16;30.26
4570;BME280;2297;51.442;6.996;2023-04-26T10:17:44;100603.44;;;10.99;29.68
4570;BME280;2297;51.442;6.996;2023-04-26T10:20:12;100612.94;;;10.58;30.48
4570;BME280;2297;51.442;6.996;2023-04-26T10:22:44;100613.63;;;10.69;30.99
4570;BME280;2297;51.442;6.996;2023-04-26T10:25:13;100614.00;;;10.99;31.37
4570;BME280;2297;51.442;6.996;2023-04-26T10:27:46;100598.97;;;10.50;30.79
4570;BME280;2297;51.442;6.996;2023-04-26T10:30:14;100608.56;;;10.57;30.40
4570;BME280;2297;51.442;6.996;2023-04-26T10:33:11;100601.78;;;10.92;30.11
4570;BME280;2297;51.442;6.996;2023-04-26T10:35:58;100598.78;;;11.15;30.25
4570;BME280;2297;51.442;6.996;2023-04-26T10:38:25;100591.78;;;11.56;29.94
4570;BME280;2297;51.442;6.996;2023-04-26T10:40:54;100598.22;;;11.87;29.39
4570;BME280;2297;51.442;6.996;2023-04-26T10:43:27;100590.03;;;11.97;29.64
4570;BME280;2297;51.442;6.996;2023-04-26T10:45:54;100594.78;;;11.81;28.76
4570;BME280;2297;51.442;6.996;2023-04-26T10:48:23;100596.53;;;10.90;28.36
4570;BME280;2297;51.442;6.996;2023-04-26T10:51:09;100599.53;;;10.70;27.77
4570;BME280;2297;51.442;6.996;2023-04-26T10:53:58;100595.31;;;11.11;28.78
4570;BME280;2297;51.442;6.996;2023-04-26T10:56:52;100588.09;;;10.68;28.96
4570;BME280;2297;51.442;6.996;2023-04-26T10:59:20;100585.63;;;11.10;29.22
4570;BME280;2297;51.442;6.996;2023-04-26T11:01:47;100588.22;;;11.12;29.46
4570;BME280;2297;51.442;6.996;2023-04-26T11:04:13;100587.25;;;11.19;29.37
4570;BME280;2297;51.442;6.996;2023-04-26T11:06:47;100582.53;;;11.35;29.28
4570;BME280;2297;51.442;6.996;2023-04-26T11:09:34;100582.25;;;11.47;29.37
4570;BME280;2297;51.442;6.996;2023-04-26T11:12:10;100580.13;;;11.65;29.36
4570;BME280;2297;51.442;6.996;2023-04-26T11:14:37;100584.56;;;11.64;29.03
4570;BME280;2297;51.442;6.996;2023-04-26T11:17:04;100595.75;;;11.35;28.57
4570;BME280;2297;51.442;6.996;2023-04-26T11:19:32;100589.69;;;11.28;29.06
4570;BME280;2297;51.442;6.996;2023-04-26T11:22:00;100592.72;;;11.05;28.89
4570;BME280;2297;51.442;6.996;2023-04-26T11:24:28;100585.84;;;10.98;29.29
4570;BME280;2297;51.442;6.996;2023-04-26T11:26:55;100587.41;;;11.08;29.31
4570;BME280;2297;51.442;6.996;2023-04-26T11:29:24;100577.81;;;11.50;29.20
4570;BME280;2297;51.442;6.996;2023-04-26T11:31:52;100587.03;;;11.30;29.21
4570;BME280;2297;51.442;6.996;2023-04-26T11:34:22;100584.38;;;11.30;29.41
4570;BME280;2297;51.442;6.996;2023-04-26T11:36:50;100583.66;;;11.66;29.62
4570;BME280;2297;51.442;6.996;2023-04-26T11:39:19;100575.19;;;11.50;29.30
4570;BME280;2297;51.442;6.996;2023-04-26T11:41:46;100579.84;;;10.87;29.93
4570;BME280;2297;51.442;6.996;2023-04-26T11:44:17;100587.31;;;11.14;30.00
4570;BME280;2297;51.442;6.996;2023-04-26T11:46:46;100575.03;;;11.13;29.91
4570;BME280;2297;51.442;6.996;2023-04-26T11:49:14;100577.22;;;10.87;29.79
4570;BME280;2297;51.442;6.996;2023-04-26T11:51:41;100567.16;;;11.07;29.85
4570;BME280;2297;51.442;6.996;2023-04-26T11:54:08;100573.91;;;11.24;30.09
4570;BME280;2297;51.442;6.996;2023-04-26T11:56:35;100578.41;;;11.20;29.89
4570;BME280;2297;51.442;6.996;2023-04-26T11:59:03;100565.00;;;11.28;30.05
4570;BME280;2297;51.442;6.996;2023-04-26T12:01:30;100567.09;;;11.56;29.86
4570;BME280;2297;51.442;6.996;2023-04-26T12:03:59;100565.63;;;11.42;29.77
4570;BME280;2297;51.442;6.996;2023-04-26T12:06:29;100567.25;;;11.50;28.88
4570;BME280;2297;51.442;6.996;2023-04-26T12:08:57;100568.25;;;11.85;28.47
4570;BME280;2297;51.442;6.996;2023-04-26T12:11:23;100557.66;;;12.25;29.05
4570;BME280;2297;51.442;6.996;2023-04-26T12:13:50;100569.59;;;12.04;28.20
4570;BME280;2297;51.442;6.996;2023-04-26T12:16:17;100569.28;;;12.17;27.61
4570;BME280;2297;51.442;6.996;2023-04-26T12:18:49;100561.75;;;12.39;27.70
4570;BME280;2297;51.442;6.996;2023-04-26T12:21:17;100553.31;;;12.23;28.13
4570;BME280;2297;51.442;6.996;2023-04-26T12:23:44;100565.44;;;12.33;27.76
4570;BME280;2297;51.442;6.996;2023-04-26T12:26:12;100563.28;;;12.49;27.78
4570;BME280;2297;51.442;6.996;2023-04-26T12:28:39;100559.00;;;12.42;27.74
4570;BME280;2297;51.442;6.996;2023-04-26T12:31:06;100563.53;;;12.38;27.77
4570;BME280;2297;51.442;6.996;2023-04-26T12:33:33;100566.88;;;12.46;27.66
4570;BME280;2297;51.442;6.996;2023-04-26T12:36:05;100562.00;;;12.28;27.31
4570;BME280;2297;51.442;6.996;2023-04-26T12:38:34;100565.34;;;12.36;26.80
4570;BME280;2297;51.442;6.996;2023-04-26T12:41:00;100559.28;;;12.31;27.24
4570;BME280;2297;51.442;6.996;2023-04-26T12:43:27;100552.06;;;12.38;27.52
4570;BME280;2297;51.442;6.996;2023-04-26T12:45:54;100559.69;;;12.52;27.52
4570;BME280;2297;51.442;6.996;2023-04-26T12:48:20;100566.69;;;12.53;27.60
4570;BME280;2297;51.442;6.996;2023-04-26T12:50:47;100567.69;;;12.48;28.34
4570;BME280;2297;51.442;6.996;2023-04-26T12:53:14;100562.84;;;12.66;27.78
4570;BME280;2297;51.442;6.996;2023-04-26T12:55:42;100567.94;;;13.07;27.60
4570;BME280;2297;51.442;6.996;2023-04-26T12:58:09;100557.56;;;13.32;27.42
4570;BME280;2297;51.442;6.996;2023-04-26T13:00:36;100556.97;;;13.52;27.36
4570;BME280;2297;51.442;6.996;2023-04-26T13:03:03;100558.09;;;13.45;27.24
4570;BME280;2297;51.442;6.996;2023-04-26T13:05:29;100559.19;;;13.36;26.71
4570;BME280;2297;51.442;6.996;2023-04-26T13:07:56;100560.53;;;12.87;26.75
4570;BME280;2297;51.442;6.996;2023-04-26T13:10:24;100557.69;;;12.94;27.93
4570;BME280;2297;51.442;6.996;2023-04-26T13:13:01;100563.09;;;12.90;27.66
4570;BME280;2297;51.442;6.996;2023-04-26T13:15:28;100563.78;;;12.98;27.33
4570;BME280;2297;51.442;6.996;2023-04-26T13:17:55;100556.88;;;12.91;26.93
4570;BME280;2297;51.442;6.996;2023-04-26T13:20:21;100559.34;;;12.98;26.34
4570;BME280;2297;51.442;6.996;2023-04-26T13:22:48;100562.78;;;13.02;26.96
4570;BME280;2297;51.442;6.996;2023-04-26T13:25:15;100563.84;;;12.95;27.06